createdAt,value
2022-12-24T00:02:11.962Z,28.33
2022-12-24T00:04:39.422Z,20.83
2022-12-24T00:07:06.952Z,19.83
2022-12-24T00:09:34.426Z,20.37
2022-12-24T00:12:01.896Z,20.20
2022-12-24T00:14:29.403Z,25.17
2022-12-24T00:16:57.046Z,38.40
2022-12-24T00:19:24.628Z,34.57
2022-12-24T00:21:52.024Z,27.53
2022-12-24T00:24:19.420Z,20.47
2022-12-24T00:26:46.932Z,20.93
2022-12-24T00:29:14.498Z,16.13
2022-12-24T00:31:42.285Z,18.53
2022-12-24T00:34:09.748Z,16.30
2022-12-24T00:36:37.347Z,18.13
2022-12-24T00:39:04.828Z,20.53
2022-12-24T00:41:32.318Z,16.20
2022-12-24T00:44:01.419Z,19.57
2022-12-24T00:46:29.899Z,20.13
2022-12-24T00:48:57.892Z,24.37
2022-12-24T00:51:25.937Z,23.90
2022-12-24T00:53:53.823Z,25.87
2022-12-24T00:56:21.430Z,29.57
2022-12-24T00:58:48.892Z,30.10
2022-12-24T01:01:16.944Z,32.50
2022-12-24T01:03:44.501Z,32.27
2022-12-24T01:06:14.660Z,31.10
2022-12-24T01:08:42.204Z,26.77
2022-12-24T01:11:10.366Z,22.27
2022-12-24T01:13:38.376Z,21.23
2022-12-24T01:16:14.177Z,25.07
2022-12-24T01:18:41.718Z,27.33
2022-12-24T01:21:09.185Z,26.03
2022-12-24T01:23:36.679Z,21.70
2022-12-24T01:26:04.940Z,20.03
2022-12-24T01:28:33.448Z,24.73
2022-12-24T01:31:00.998Z,21.87
2022-12-24T01:33:30.298Z,18.03
2022-12-24T01:35:57.788Z,18.57
2022-12-24T01:38:27.948Z,19.07
2022-12-24T01:41:15.306Z,14.20
2022-12-24T01:43:42.803Z,15.80
2022-12-24T01:46:21.137Z,16.97
2022-12-24T01:48:52.608Z,17.37
2022-12-24T01:51:24.330Z,19.30
2022-12-24T01:53:55.585Z,19.93
2022-12-24T01:56:23.245Z,18.57
2022-12-24T01:58:55.178Z,18.97
2022-12-24T02:01:22.978Z,14.43
2022-12-24T02:03:52.539Z,13.50
2022-12-24T02:06:22.106Z,19.03
2022-12-24T02:08:49.573Z,20.20
2022-12-24T02:11:18.261Z,29.83
2022-12-24T02:13:48.962Z,32.30
2022-12-24T02:16:26.959Z,33.03
2022-12-24T02:19:16.232Z,34.63
2022-12-24T02:22:03.553Z,32.83
2022-12-24T02:24:41.633Z,49.40
2022-12-24T02:27:28.888Z,53.07
2022-12-24T02:30:00.963Z,53.07
2022-12-24T02:32:48.283Z,42.93
2022-12-24T02:35:19.712Z,46.73
2022-12-24T02:37:51.275Z,40.53
2022-12-24T02:40:20.950Z,43.63
2022-12-24T02:42:51.454Z,39.73
2022-12-24T02:45:21.351Z,37.73
2022-12-24T02:47:49.783Z,32.67
2022-12-24T02:50:18.103Z,37.77
2022-12-24T02:52:46.891Z,36.10
2022-12-24T02:55:34.171Z,35.20
2022-12-24T02:58:07.580Z,35.43
2022-12-24T03:00:55.016Z,37.37
2022-12-24T03:03:40.965Z,42.17
2022-12-24T03:06:13.435Z,46.27
2022-12-24T03:08:46.208Z,44.03
2022-12-24T03:11:15.500Z,32.03
2022-12-24T03:13:44.005Z,36.03
2022-12-24T03:16:13.127Z,17.60
2022-12-24T03:18:45.226Z,19.87
2022-12-24T03:21:25.600Z,9.87
2022-12-24T03:23:52.967Z,6.77
2022-12-24T03:26:21.232Z,6.10
2022-12-24T03:28:49.213Z,7.07
2022-12-24T03:31:17.133Z,5.23
2022-12-24T03:33:44.656Z,7.77
2022-12-24T03:36:12.553Z,8.93
2022-12-24T03:38:42.422Z,5.77
2022-12-24T03:41:09.818Z,4.87
2022-12-24T03:43:39.369Z,4.43
2022-12-24T03:46:08.348Z,4.57
2022-12-24T03:48:38.150Z,4.23
2022-12-24T03:51:07.849Z,3.33
2022-12-24T03:53:35.254Z,4.57
2022-12-24T03:56:02.690Z,4.53
2022-12-24T03:58:32.295Z,4.20
2022-12-24T04:01:04.318Z,5.10
2022-12-24T04:03:32.378Z,4.60
2022-12-24T04:06:08.488Z,5.03
2022-12-24T04:08:36.025Z,9.23
2022-12-24T04:11:09.652Z,8.30
2022-12-24T04:13:38.054Z,6.87
2022-12-24T04:16:07.517Z,6.30
2022-12-24T04:18:35.095Z,8.80
2022-12-24T04:21:03.064Z,7.67
2022-12-24T04:23:32.981Z,5.80
2022-12-24T04:26:00.920Z,8.27
2022-12-24T04:28:29.991Z,7.97
2022-12-24T04:31:01.482Z,5.23
2022-12-24T04:33:28.879Z,9.47
2022-12-24T04:35:58.494Z,7.00
2022-12-24T04:38:28.188Z,7.87
2022-12-24T04:41:06.055Z,6.00
2022-12-24T04:43:35.875Z,5.47
2022-12-24T04:46:08.042Z,4.47
2022-12-24T04:48:35.659Z,4.17
2022-12-24T04:51:07.937Z,4.90
2022-12-24T04:53:35.865Z,4.27
2022-12-24T04:56:03.477Z,24.70
2022-12-24T04:58:31.609Z,28.07
2022-12-24T05:01:06.947Z,40.90
2022-12-24T05:06:02.753Z,25.40
2022-12-24T05:08:30.276Z,21.60
2022-12-24T05:10:58.580Z,10.53
2022-12-24T05:13:34.257Z,7.83
2022-12-24T05:16:06.156Z,10.50
2022-12-24T05:18:35.312Z,16.87
2022-12-24T05:21:02.787Z,18.70
2022-12-24T05:23:50.828Z,26.73
2022-12-24T05:26:30.951Z,26.67
2022-12-24T05:28:59.317Z,53.53
2022-12-24T05:31:27.814Z,52.87
2022-12-24T05:33:55.844Z,21.57
2022-12-24T05:36:24.087Z,19.77
2022-12-24T05:38:51.913Z,11.90
2022-12-24T05:41:19.405Z,10.10
2022-12-24T05:43:47.043Z,13.27
2022-12-24T05:46:19.126Z,12.93
2022-12-24T05:48:47.131Z,16.75
2022-12-24T05:51:14.957Z,16.03
2022-12-24T05:53:42.386Z,17.05
2022-12-24T05:56:12.280Z,15.57
2022-12-24T05:58:40.198Z,13.27
2022-12-24T06:01:08.085Z,14.55
2022-12-24T06:03:38.083Z,12.98
2022-12-24T06:06:25.323Z,13.40
2022-12-24T06:08:53.248Z,13.27
2022-12-24T06:11:22.141Z,13.70
2022-12-24T06:13:49.868Z,17.48
2022-12-24T06:16:18.785Z,20.23
2022-12-24T06:18:46.320Z,13.95
2022-12-24T06:21:14.082Z,16.50
2022-12-24T06:23:45.159Z,12.30
2022-12-24T06:26:13.390Z,16.83
2022-12-24T06:28:43.026Z,9.55
2022-12-24T06:31:12.765Z,9.35
2022-12-24T06:33:40.220Z,9.43
2022-12-24T06:36:14.948Z,8.77
2022-12-24T06:38:44.540Z,13.52
2022-12-24T06:41:11.986Z,15.30
2022-12-24T06:43:39.558Z,17.53
2022-12-24T06:46:07.139Z,16.23
2022-12-24T06:48:34.543Z,15.40
2022-12-24T06:51:03.832Z,19.23
2022-12-24T06:53:33.394Z,26.33
2022-12-24T06:56:20.764Z,27.47
2022-12-24T06:58:48.358Z,25.70
2022-12-24T07:01:16.681Z,31.88
2022-12-24T07:03:44.521Z,27.67
2022-12-24T07:06:22.280Z,25.85
2022-12-24T07:08:49.771Z,42.90
2022-12-24T07:11:17.787Z,49.47
2022-12-24T07:13:45.351Z,38.87
2022-12-24T07:16:12.835Z,45.42
2022-12-24T07:18:40.233Z,56.30
2022-12-24T07:21:07.807Z,55.13
2022-12-24T07:23:35.750Z,52.83
2022-12-24T07:26:04.449Z,44.08
2022-12-24T07:28:32.124Z,45.57
2022-12-24T07:31:00.338Z,38.97
2022-12-24T07:33:28.033Z,31.35
2022-12-24T07:36:03.879Z,31.30
2022-12-24T07:38:36.225Z,29.95
2022-12-24T07:41:03.788Z,33.92
2022-12-24T07:43:31.416Z,28.98
2022-12-24T07:45:59.010Z,25.87
2022-12-24T07:48:27.367Z,31.33
2022-12-24T07:50:57.617Z,27.75
2022-12-24T07:53:26.116Z,26.03
2022-12-24T07:55:54.026Z,25.03
2022-12-24T07:58:21.687Z,21.70
2022-12-24T08:00:51.682Z,22.40
2022-12-24T08:03:19.651Z,20.50
2022-12-24T08:05:47.605Z,16.60
2022-12-24T08:08:15.221Z,16.37
2022-12-24T08:10:43.592Z,16.60
2022-12-24T08:13:11.022Z,14.30
2022-12-24T08:15:39.541Z,13.93
2022-12-24T08:18:07.042Z,14.80
2022-12-24T08:20:34.611Z,11.47
2022-12-24T08:23:02.081Z,8.17
2022-12-24T08:25:29.491Z,11.13
2022-12-24T08:27:58.058Z,8.07
2022-12-24T08:30:25.749Z,6.47
2022-12-24T08:32:55.156Z,6.00
2022-12-24T08:35:27.871Z,6.07
2022-12-24T08:37:55.734Z,4.73
2022-12-24T08:40:23.429Z,4.83
2022-12-24T08:42:51.013Z,5.37
2022-12-24T08:45:18.620Z,4.20
2022-12-24T08:47:46.308Z,6.53
2022-12-24T08:50:16.134Z,3.80
2022-12-24T08:52:43.625Z,4.23
2022-12-24T08:55:11.105Z,8.10
2022-12-24T08:57:40.700Z,7.67
2022-12-24T09:00:16.938Z,6.47
2022-12-24T09:02:45.972Z,6.03
2022-12-24T09:05:13.621Z,6.70
2022-12-24T09:07:41.178Z,12.77
2022-12-24T09:10:09.275Z,15.23
2022-12-24T09:12:36.691Z,20.80
2022-12-24T09:15:04.635Z,19.93
2022-12-24T09:17:32.426Z,18.27
2022-12-24T09:19:59.894Z,13.07
2022-12-24T09:22:27.345Z,10.07
2022-12-24T09:24:55.298Z,17.30
2022-12-24T09:27:22.824Z,15.00
2022-12-24T09:29:50.375Z,9.73
2022-12-24T09:32:17.856Z,8.93
2022-12-24T09:34:45.584Z,9.63
2022-12-24T09:37:13.246Z,6.93
2022-12-24T09:39:40.650Z,9.03
2022-12-24T09:42:27.891Z,8.30
2022-12-24T09:44:59.615Z,7.33
2022-12-24T09:47:44.993Z,6.47
2022-12-24T09:50:25.679Z,6.97
2022-12-24T09:52:53.518Z,8.53
2022-12-24T09:55:40.737Z,7.60
2022-12-24T09:58:17.873Z,5.40
2022-12-24T10:00:49.892Z,4.67
2022-12-24T10:03:17.949Z,7.43
2022-12-24T10:05:57.521Z,4.07
2022-12-24T10:08:31.207Z,5.00
2022-12-24T10:11:08.651Z,5.63
2022-12-24T10:13:45.023Z,4.97
2022-12-24T10:16:21.219Z,6.83
2022-12-24T10:19:08.570Z,5.70
2022-12-24T10:21:49.183Z,4.53
2022-12-24T10:24:22.255Z,4.10
2022-12-24T10:26:54.057Z,3.67
2022-12-24T10:29:27.171Z,2.50
2022-12-24T10:32:17.474Z,3.00
2022-12-24T10:34:46.924Z,6.27
2022-12-24T10:37:16.534Z,5.67
2022-12-24T10:39:44.251Z,5.87
2022-12-24T10:42:12.516Z,7.30
2022-12-24T10:44:42.362Z,3.60
2022-12-24T10:47:10.555Z,3.87
2022-12-24T10:50:14.536Z,4.03
2022-12-24T10:52:44.041Z,3.00
2022-12-24T10:55:31.437Z,2.90
2022-12-24T10:58:03.214Z,4.93
2022-12-24T11:00:35.837Z,8.43
2022-12-24T11:03:08.935Z,3.47
2022-12-24T11:05:37.533Z,3.67
2022-12-24T11:08:08.408Z,2.97
2022-12-24T11:10:37.911Z,3.37
2022-12-24T11:13:36.406Z,4.03
2022-12-24T11:16:15.220Z,2.90
2022-12-24T11:18:52.265Z,4.83
2022-12-24T11:21:24.633Z,2.97
2022-12-24T11:23:54.595Z,3.27
2022-12-24T11:26:23.060Z,3.30
2022-12-24T11:29:10.380Z,3.80
2022-12-24T11:31:38.046Z,1.90
2022-12-24T11:34:25.375Z,2.77
2022-12-24T11:36:54.039Z,1.90
2022-12-24T11:39:22.657Z,4.40
2022-12-24T11:41:51.922Z,3.23
2022-12-24T11:44:25.085Z,1.47
2022-12-24T11:46:56.862Z,1.60
2022-12-24T11:49:44.345Z,2.40
2022-12-24T11:52:31.828Z,3.30
2022-12-24T11:55:08.928Z,2.87
2022-12-24T11:57:44.780Z,3.03
2022-12-24T12:00:12.846Z,2.37
2022-12-24T12:02:43.451Z,2.00
2022-12-24T12:05:13.925Z,3.07
2022-12-24T12:07:41.588Z,2.93
2022-12-24T12:10:31.288Z,2.87
2022-12-24T12:13:06.395Z,3.97
2022-12-24T12:15:42.614Z,4.20
2022-12-24T12:18:12.532Z,2.90
2022-12-24T12:20:44.559Z,3.37
2022-12-24T12:23:31.934Z,3.83
2022-12-24T12:26:19.302Z,2.30
2022-12-24T12:29:07.097Z,5.47
2022-12-24T12:31:37.765Z,3.80
2022-12-24T12:34:24.963Z,3.00
2022-12-24T12:36:58.194Z,3.50
2022-12-24T12:39:25.633Z,2.17
2022-12-24T12:42:10.703Z,3.43
2022-12-24T12:44:58.044Z,2.45
2022-12-24T12:47:49.725Z,4.23
2022-12-24T12:50:37.072Z,3.27
2022-12-24T12:53:12.015Z,3.37
2022-12-24T12:55:59.292Z,2.67
2022-12-24T12:58:29.170Z,3.10
2022-12-24T13:01:00.429Z,2.20
2022-12-24T13:03:47.727Z,3.37
2022-12-24T13:06:34.948Z,4.17
2022-12-24T13:09:22.225Z,4.17
2022-12-24T13:12:09.539Z,3.70
2022-12-24T13:14:56.793Z,3.47
2022-12-24T13:17:44.228Z,5.20
2022-12-24T13:20:15.859Z,4.63
2022-12-24T13:22:49.392Z,6.67
2022-12-24T13:25:27.430Z,12.17
2022-12-24T13:27:54.917Z,6.03
2022-12-24T13:30:42.196Z,6.80
2022-12-24T13:33:11.468Z,8.07
2022-12-24T13:35:39.781Z,12.17
2022-12-24T13:38:27.104Z,9.87
2022-12-24T13:40:56.852Z,8.10
2022-12-24T13:43:24.344Z,5.93
2022-12-24T13:45:57.851Z,8.43
2022-12-24T13:48:33.816Z,7.00
2022-12-24T13:51:18.387Z,8.30
2022-12-24T13:53:47.643Z,8.70
2022-12-24T13:56:37.046Z,7.53
2022-12-24T13:59:39.273Z,7.00
2022-12-24T14:02:25.659Z,9.87
2022-12-24T14:04:53.409Z,13.60
2022-12-24T14:07:21.776Z,16.73
2022-12-24T14:09:51.884Z,15.33
2022-12-24T14:12:43.070Z,18.87
2022-12-24T14:15:30.351Z,16.77
2022-12-24T14:17:58.067Z,15.50
2022-12-24T14:20:25.639Z,13.13
2022-12-24T14:22:53.191Z,14.07
2022-12-24T14:25:24.294Z,18.67
2022-12-24T14:27:59.855Z,20.27
2022-12-24T14:30:31.745Z,18.77
2022-12-24T14:32:59.458Z,23.70
2022-12-24T14:35:29.628Z,21.53
2022-12-24T14:38:19.145Z,18.23
2022-12-24T14:41:09.115Z,18.33
2022-12-24T14:43:56.398Z,17.90
2022-12-24T14:46:45.575Z,17.47
2022-12-24T14:49:32.906Z,17.73
2022-12-24T14:52:45.953Z,19.13
2022-12-24T14:55:29.925Z,28.63
2022-12-24T14:58:17.955Z,24.93
2022-12-24T15:00:45.608Z,35.70
2022-12-24T15:03:15.442Z,41.40
2022-12-24T15:05:43.784Z,33.37
2022-12-24T15:08:15.496Z,40.77
2022-12-24T15:10:47.287Z,32.87
2022-12-24T15:13:36.835Z,34.23
2022-12-24T15:16:05.871Z,51.97
2022-12-24T15:18:34.251Z,44.37
2022-12-24T15:21:04.787Z,36.30
2022-12-24T15:23:33.735Z,43.77
2022-12-24T15:26:21.347Z,55.67
2022-12-24T15:28:48.858Z,25.90
2022-12-24T15:31:21.430Z,23.03
2022-12-24T15:33:49.604Z,35.97
2022-12-24T15:36:18.986Z,28.27
2022-12-24T15:38:51.824Z,25.23
2022-12-24T15:41:26.888Z,44.77
2022-12-24T15:44:06.641Z,40.30
2022-12-24T15:46:39.229Z,41.17
2022-12-24T15:49:18.489Z,65.33
2022-12-24T15:51:56.954Z,34.73
2022-12-24T15:54:30.205Z,36.07
2022-12-24T15:57:03.771Z,38.80
2022-12-24T15:59:42.403Z,42.10
2022-12-24T16:02:34.437Z,52.80
2022-12-24T16:05:25.685Z,28.57
2022-12-24T16:08:18.166Z,24.83
2022-12-24T16:10:58.739Z,21.07
2022-12-24T16:13:40.440Z,38.30
2022-12-24T16:16:36.878Z,44.13
2022-12-24T16:19:12.525Z,25.07
2022-12-24T16:21:49.243Z,46.50
2022-12-24T16:24:24.379Z,49.97
2022-12-24T16:26:58.520Z,75.20
2022-12-24T16:29:31.417Z,38.60
2022-12-24T16:32:03.458Z,47.47
2022-12-24T16:34:39.313Z,34.47
2022-12-24T16:37:11.300Z,26.77
2022-12-24T16:39:38.794Z,24.03
2022-12-24T16:42:39.939Z,51.57
2022-12-24T16:45:16.856Z,40.23
2022-12-24T16:47:53.824Z,65.10
2022-12-24T16:50:27.918Z,38.33
2022-12-24T16:53:00.135Z,19.37
2022-12-24T16:55:32.665Z,26.70
2022-12-24T16:58:03.862Z,43.77
2022-12-24T17:00:40.975Z,26.57
2022-12-24T17:03:17.308Z,25.80
2022-12-24T17:05:54.478Z,17.77
2022-12-24T17:08:25.698Z,19.27
2022-12-24T17:10:59.318Z,25.90
2022-12-24T17:13:31.869Z,23.97
2022-12-24T17:16:09.242Z,22.53
2022-12-24T17:18:40.243Z,21.17
2022-12-24T17:21:45.608Z,17.20
2022-12-24T17:24:25.971Z,17.00
2022-12-24T17:26:59.667Z,17.80
2022-12-24T17:29:33.457Z,18.77
2022-12-24T17:32:05.993Z,16.50
2022-12-24T17:34:38.952Z,15.77
2022-12-24T17:37:14.257Z,18.50
2022-12-24T17:39:50.551Z,21.57
2022-12-24T17:42:30.121Z,29.67
2022-12-24T17:45:06.913Z,32.17
2022-12-24T17:47:53.013Z,79.37
2022-12-24T17:50:35.591Z,76.80
2022-12-24T17:53:12.928Z,60.73
2022-12-24T17:56:01.420Z,44.75
2022-12-24T17:58:45.594Z,18.95
2022-12-24T18:01:23.743Z,45.47
2022-12-24T18:04:01.735Z,49.20
2022-12-24T18:06:49.038Z,52.80
2022-12-24T18:09:25.271Z,31.85
2022-12-24T18:12:04.517Z,48.40
2022-12-24T18:14:41.654Z,26.17
2022-12-24T18:17:23.103Z,16.02
2022-12-24T18:20:16.197Z,16.67
2022-12-24T18:23:01.869Z,16.27
2022-12-24T18:25:44.617Z,13.98
2022-12-24T18:28:28.771Z,14.88
2022-12-24T18:33:57.511Z,22.33
2022-12-24T18:36:41.056Z,18.50
2022-12-24T18:39:18.975Z,10.60
2022-12-24T18:42:06.661Z,11.73
2022-12-24T18:44:45.809Z,12.80
2022-12-24T18:47:31.338Z,15.63
2022-12-24T18:50:13.485Z,16.63
2022-12-24T18:52:53.058Z,20.20
2022-12-24T18:55:32.112Z,17.87
2022-12-24T18:58:14.671Z,17.07
2022-12-24T19:00:53.454Z,19.93
2022-12-24T19:03:42.122Z,30.13
2022-12-24T19:06:22.925Z,29.83
2022-12-24T19:09:01.752Z,20.90
2022-12-24T19:12:02.000Z,27.90
2022-12-24T19:14:46.927Z,21.40
2022-12-24T19:17:26.232Z,20.55
2022-12-24T19:20:09.300Z,23.87
2022-12-24T19:22:51.154Z,21.67
2022-12-24T19:25:27.889Z,20.80
2022-12-24T19:28:06.520Z,27.50
2022-12-24T19:30:45.685Z,36.83
2022-12-24T19:33:25.554Z,31.80
2022-12-24T19:36:03.538Z,30.77
2022-12-24T19:38:39.626Z,24.73
2022-12-24T19:41:26.691Z,28.27
2022-12-24T19:44:09.663Z,24.00
2022-12-24T19:46:42.007Z,32.87
2022-12-24T19:49:20.610Z,30.63
2022-12-24T19:52:02.598Z,34.90
2022-12-24T19:54:41.568Z,28.17
2022-12-24T19:57:14.970Z,31.37
2022-12-24T19:59:57.687Z,62.13
2022-12-24T20:02:40.408Z,44.28
2022-12-24T20:05:22.153Z,45.50
2022-12-24T20:08:03.898Z,36.53
2022-12-24T20:10:47.749Z,46.75
2022-12-24T20:13:27.959Z,61.83
2022-12-24T20:16:07.568Z,66.65
2022-12-24T20:18:49.625Z,64.63
2022-12-24T20:21:27.436Z,63.27
2022-12-24T20:24:05.753Z,65.53
2022-12-24T20:26:44.726Z,59.23
2022-12-24T20:29:14.079Z,50.23
2022-12-24T20:31:54.662Z,46.40
2022-12-24T20:34:30.916Z,49.23
2022-12-24T20:37:06.840Z,51.03
2022-12-24T20:39:47.079Z,59.17
2022-12-24T20:42:28.644Z,65.53
2022-12-24T20:44:57.544Z,77.23
2022-12-24T20:47:35.821Z,51.17
2022-12-24T20:50:16.206Z,49.92
2022-12-24T20:52:59.268Z,75.72
2022-12-24T20:55:37.249Z,67.40
2022-12-24T20:58:13.676Z,65.40
2022-12-24T21:00:54.058Z,89.53
2022-12-24T21:03:23.210Z,53.20
2022-12-24T21:06:05.375Z,71.20
2022-12-24T21:08:42.572Z,67.83
2022-12-24T21:11:48.290Z,83.75
2022-12-24T21:14:21.290Z,58.27
2022-12-24T21:16:59.337Z,63.83
2022-12-24T21:19:42.264Z,53.60
2022-12-24T21:22:19.861Z,48.10
2022-12-24T21:25:02.889Z,57.25
2022-12-24T21:27:37.954Z,51.70
2022-12-24T21:30:15.248Z,35.70
2022-12-24T21:32:44.148Z,49.70
2022-12-24T21:35:20.477Z,61.50
2022-12-24T21:37:59.896Z,61.38
2022-12-24T21:40:37.258Z,69.23
2022-12-24T21:43:10.035Z,69.85
2022-12-24T21:45:47.973Z,76.10
2022-12-24T21:48:39.855Z,60.17
2022-12-24T21:51:26.965Z,51.47
2022-12-24T21:54:18.378Z,60.33
2022-12-24T21:57:10.194Z,75.07
2022-12-24T21:59:43.757Z,70.57
2022-12-24T22:02:16.307Z,72.53
2022-12-24T22:04:44.415Z,57.47
2022-12-24T22:07:39.970Z,79.43
2022-12-24T22:10:28.020Z,71.97
2022-12-24T22:12:55.992Z,48.58
2022-12-24T22:15:23.709Z,47.55
2022-12-24T22:17:51.649Z,58.15
2022-12-24T22:20:19.198Z,48.47
2022-12-24T22:22:48.294Z,53.92
2022-12-24T22:25:16.200Z,51.38
2022-12-24T22:27:44.115Z,47.88
2022-12-24T22:30:12.412Z,45.70
2022-12-24T22:32:40.358Z,69.03
2022-12-24T22:35:09.307Z,61.97
2022-12-24T22:37:36.804Z,53.90
2022-12-24T22:40:04.966Z,50.27
2022-12-24T22:42:34.412Z,53.70
2022-12-24T22:45:03.384Z,56.53
2022-12-24T22:47:32.035Z,47.00
2022-12-24T22:50:00.429Z,48.25
2022-12-24T22:52:31.742Z,59.45
2022-12-24T22:55:03.236Z,70.63
2022-12-24T22:57:31.633Z,46.15
2022-12-24T22:59:59.908Z,51.30
2022-12-24T23:02:30.359Z,71.13
2022-12-24T23:04:58.766Z,47.28
2022-12-24T23:07:26.297Z,47.55
2022-12-24T23:09:54.479Z,50.78
2022-12-24T23:12:41.830Z,42.63
2022-12-24T23:15:09.843Z,50.17
2022-12-24T23:17:37.603Z,47.63
2022-12-24T23:20:05.346Z,47.00
2022-12-24T23:22:33.101Z,44.67
2022-12-24T23:25:00.662Z,36.05
2022-12-24T23:27:28.317Z,33.90
2022-12-24T23:29:56.084Z,31.70
2022-12-24T23:32:24.083Z,29.77
2022-12-24T23:34:51.722Z,31.27
2022-12-24T23:37:19.898Z,30.25
2022-12-24T23:39:47.352Z,34.80
2022-12-24T23:42:15.018Z,31.60
2022-12-24T23:44:42.616Z,35.35
2022-12-24T23:47:10.208Z,31.52
2022-12-24T23:49:37.841Z,34.10
2022-12-24T23:52:05.613Z,31.00
2022-12-24T23:54:33.103Z,35.80
2022-12-24T23:57:00.612Z,34.03
2022-12-24T23:59:28.139Z,34.78
